Aviation Digital Data Service (ADDS)

Output produced by METARs form (0322 UTC 04 July 2015)
found at http://aviationweather.gov/adds/metars/
 
KPOU 032337Z 0400/0424 VRB03KT P6SM SCT100 BKN200 
     FM040800 00000KT P6SM VCSH SCT060 OVC100 
     FM041400 VRB04KT P6SM -SHRA SCT025 OVC035 
     FM042100 VRB03KT P6SM VCSH SCT035 BKN070